sensor_id;sensor_type;location;lat;lon;timestamp;pressure;altitude;pressure_sealevel;temperature;humidity
23164;BME280;31429;42.674;23.350;2023-06-14T00:00:07;94415.72;;;16.57;100.00
23164;BME280;31429;42.674;23.350;2023-06-14T00:01:09;94409.13;;;16.53;100.00
23164;BME280;31429;42.674;23.350;2023-06-14T00:02:10;94412.41;;;16.55;100.00
23164;BME280;31429;42.674;23.350;2023-06-14T00:03:10;94418.28;;;16.57;100.00
23164;BME280;31429;42.674;23.350;2023-06-14T00:04:12;94413.97;;;16.58;100.00
23164;BME280;31429;42.674;23.350;2023-06-14T00:05:13;94409.44;;;16.61;100.00
23164;BME280;31429;42.674;23.350;2023-06-14T00:06:14;94404.69;;;16.68;100.00
23164;BME280;31429;42.674;23.350;2023-06-14T00:07:15;94411.59;;;16.67;100.00
23164;BME280;31429;42.674;23.350;2023-06-14T00:08:16;94406.31;;;16.69;100.00
23164;BME280;31429;42.674;23.350;2023-06-14T00:09:19;94410.38;;;16.73;100.00
23164;BME280;31429;42.674;23.350;2023-06-14T00:10:20;94406.88;;;16.74;100.00
23164;BME280;31429;42.674;23.350;2023-06-14T00:11:20;94411.19;;;16.74;100.00
23164;BME280;31429;42.674;23.350;2023-06-14T00:12:21;94402.00;;;16.70;100.00
23164;BME280;31429;42.674;23.350;2023-06-14T00:13:22;94407.28;;;16.68;100.00
23164;BME280;31429;42.674;23.350;2023-06-14T00:14:23;94400.25;;;16.70;100.00
23164;BME280;31429;42.674;23.350;2023-06-14T00:15:24;94398.69;;;16.67;100.00
23164;BME280;31429;42.674;23.350;2023-06-14T00:16:26;94396.19;;;16.66;100.00
23164;BME280;31429;42.674;23.350;2023-06-14T00:17:27;94394.66;;;16.63;100.00
23164;BME280;31429;42.674;23.350;2023-06-14T00:18:30;94396.44;;;16.63;100.00
23164;BME280;31429;42.674;23.350;2023-06-14T00:19:31;94395.81;;;16.59;100.00
23164;BME280;31429;42.674;23.350;2023-06-14T00:20:34;94396.44;;;16.63;100.00
23164;BME280;31429;42.674;23.350;2023-06-14T00:21:35;94394.06;;;16.60;100.00
23164;BME280;31429;42.674;23.350;2023-06-14T00:22:36;94399.31;;;16.58;100.00
23164;BME280;31429;42.674;23.350;2023-06-14T00:23:39;94393.44;;;16.56;100.00
23164;BME280;31429;42.674;23.350;2023-06-14T00:24:39;94396.84;;;16.57;100.00
23164;BME280;31429;42.674;23.350;2023-06-14T00:25:40;94395.06;;;16.57;100.00
23164;BME280;31429;42.674;23.350;2023-06-14T00:26:41;94398.59;;;16.56;100.00
23164;BME280;31429;42.674;23.350;2023-06-14T00:27:41;94395.06;;;16.57;100.00
23164;BME280;31429;42.674;23.350;2023-06-14T00:28:42;94394.34;;;16.55;100.00
23164;BME280;31429;42.674;23.350;2023-06-14T00:29:43;94392.47;;;16.57;100.00
23164;BME280;31429;42.674;23.350;2023-06-14T00:30:43;94401.06;;;16.58;100.00
23164;BME280;31429;42.674;23.350;2023-06-14T00:31:48;94394.16;;;16.58;100.00
23164;BME280;31429;42.674;23.350;2023-06-14T00:32:48;94395.81;;;16.59;100.00
23164;BME280;31429;42.674;23.350;2023-06-14T00:33:50;94392.41;;;16.59;100.00
23164;BME280;31429;42.674;23.350;2023-06-14T00:34:50;94395.88;;;16.58;100.00
23164;BME280;31429;42.674;23.350;2023-06-14T00:35:51;94384.72;;;16.57;100.00
23164;BME280;31429;42.674;23.350;2023-06-14T00:36:54;94386.53;;;16.57;100.00
23164;BME280;31429;42.674;23.350;2023-06-14T00:37:54;94385.38;;;16.61;100.00
23164;BME280;31429;42.674;23.350;2023-06-14T00:38:55;94390.53;;;16.61;100.00
23164;BME280;31429;42.674;23.350;2023-06-14T00:39:56;94387.94;;;16.61;100.00
23164;BME280;31429;42.674;23.350;2023-06-14T00:40:56;94385.47;;;16.59;100.00
23164;BME280;31429;42.674;23.350;2023-06-14T00:41:57;94395.81;;;16.59;100.00
23164;BME280;31429;42.674;23.350;2023-06-14T00:42:59;94386.41;;;16.58;100.00
23164;BME280;31429;42.674;23.350;2023-06-14T00:44:00;94388.16;;;16.58;100.00
23164;BME280;31429;42.674;23.350;2023-06-14T00:45:01;94375.25;;;16.58;100.00
23164;BME280;31429;42.674;23.350;2023-06-14T00:46:02;94387.22;;;16.59;100.00
23164;BME280;31429;42.674;23.350;2023-06-14T00:47:04;94385.56;;;16.58;100.00
23164;BME280;31429;42.674;23.350;2023-06-14T00:48:05;94381.16;;;16.60;100.00
23164;BME280;31429;42.674;23.350;2023-06-14T00:49:07;94370.91;;;16.58;100.00
23164;BME280;31429;42.674;23.350;2023-06-14T00:50:09;94379.50;;;16.59;100.00
23164;BME280;31429;42.674;23.350;2023-06-14T00:51:10;94379.81;;;16.54;100.00
23164;BME280;31429;42.674;23.350;2023-06-14T00:52:10;94379.81;;;16.54;100.00
23164;BME280;31429;42.674;23.350;2023-06-14T00:53:12;94377.41;;;16.51;100.00
23164;BME280;31429;42.674;23.350;2023-06-14T00:54:15;94378.53;;;16.47;100.00
23164;BME280;31429;42.674;23.350;2023-06-14T00:55:16;94380.91;;;16.50;100.00
23164;BME280;31429;42.674;23.350;2023-06-14T00:56:17;94379.34;;;16.48;100.00
23164;BME280;31429;42.674;23.350;2023-06-14T00:57:21;94379.56;;;16.45;100.00
23164;BME280;31429;42.674;23.350;2023-06-14T00:58:22;94375.31;;;16.44;100.00
23164;BME280;31429;42.674;23.350;2023-06-14T00:59:23;94388.97;;;16.46;100.00
23164;BME280;31429;42.674;23.350;2023-06-14T01:00:24;94377.88;;;16.44;100.00
23164;BME280;31429;42.674;23.350;2023-06-14T01:01:25;94386.38;;;16.46;100.00
23164;BME280;31429;42.674;23.350;2023-06-14T01:02:27;94385.53;;;16.45;100.00
23164;BME280;31429;42.674;23.350;2023-06-14T01:03:27;94374.38;;;16.45;100.00
23164;BME280;31429;42.674;23.350;2023-06-14T01:04:28;94386.47;;;16.44;100.00
23164;BME280;31429;42.674;23.350;2023-06-14T01:05:29;94371.81;;;16.45;100.00
23164;BME280;31429;42.674;23.350;2023-06-14T01:06:35;94385.53;;;16.45;100.00
23164;BME280;31429;42.674;23.350;2023-06-14T01:07:50;94373.03;;;16.52;100.00
23164;BME280;31429;42.674;23.350;2023-06-14T01:09:01;94375.63;;;16.52;100.00
23164;BME280;31429;42.674;23.350;2023-06-14T01:10:17;94380.97;;;16.49;100.00
23164;BME280;31429;42.674;23.350;2023-06-14T01:11:26;94373.47;;;16.46;100.00
23164;BME280;31429;42.674;23.350;2023-06-14T01:12:34;94374.91;;;16.50;100.00
23164;BME280;31429;42.674;23.350;2023-06-14T01:13:38;94379.03;;;16.52;100.00
23164;BME280;31429;42.674;23.350;2023-06-14T01:14:41;94378.19;;;16.52;100.00
23164;BME280;31429;42.674;23.350;2023-06-14T01:15:43;94374.69;;;16.53;100.00
23164;BME280;31429;42.674;23.350;2023-06-14T01:16:44;94377.00;;;16.57;100.00
23164;BME280;31429;42.674;23.350;2023-06-14T01:17:50;94369.38;;;16.56;100.00
23164;BME280;31429;42.674;23.350;2023-06-14T01:18:52;94380.41;;;16.58;100.00
23164;BME280;31429;42.674;23.350;2023-06-14T01:19:56;94373.69;;;16.55;100.00
23164;BME280;31429;42.674;23.350;2023-06-14T01:20:58;94378.66;;;16.58;100.00
23164;BME280;31429;42.674;23.350;2023-06-14T01:21:59;94377.81;;;16.58;100.00
23164;BME280;31429;42.674;23.350;2023-06-14T01:23:02;94382.16;;;16.57;100.00
23164;BME280;31429;42.674;23.350;2023-06-14T01:24:03;94382.06;;;16.59;100.00
23164;BME280;31429;42.674;23.350;2023-06-14T01:25:05;94376.00;;;16.60;100.00
23164;BME280;31429;42.674;23.350;2023-06-14T01:26:05;94376.06;;;16.58;100.00
23164;BME280;31429;42.674;23.350;2023-06-14T01:27:07;94371.75;;;16.59;100.00
23164;BME280;31429;42.674;23.350;2023-06-14T01:28:10;94376.91;;;16.59;100.00
23164;BME280;31429;42.674;23.350;2023-06-14T01:29:13;94381.25;;;16.58;100.00
23164;BME280;31429;42.674;23.350;2023-06-14T01:30:18;94382.28;;;16.56;100.00
23164;BME280;31429;42.674;23.350;2023-06-14T01:31:22;94379.56;;;16.57;100.00
23164;BME280;31429;42.674;23.350;2023-06-14T01:32:24;94384.97;;;16.54;100.00
23164;BME280;31429;42.674;23.350;2023-06-14T01:33:27;94375.75;;;16.50;100.00
23164;BME280;31429;42.674;23.350;2023-06-14T01:34:28;94378.19;;;16.52;100.00
23164;BME280;31429;42.674;23.350;2023-06-14T01:35:29;94387.59;;;16.53;100.00
23164;BME280;31429;42.674;23.350;2023-06-14T01:36:30;94377.41;;;16.51;100.00
23164;BME280;31429;42.674;23.350;2023-06-14T01:37:31;94376.56;;;16.51;100.00
23164;BME280;31429;42.674;23.350;2023-06-14T01:38:34;94370.56;;;16.50;100.00
23164;BME280;31429;42.674;23.350;2023-06-14T01:39:35;94376.41;;;16.54;100.00
23164;BME280;31429;42.674;23.350;2023-06-14T01:40:36;94372.13;;;16.53;100.00
23164;BME280;31429;42.674;23.350;2023-06-14T01:41:37;94375.56;;;16.53;100.00
23164;BME280;31429;42.674;23.350;2023-06-14T01:42:38;94373.81;;;16.54;100.00
23164;BME280;31429;42.674;23.350;2023-06-14T01:43:40;94372.88;;;16.55;100.00
23164;BME280;31429;42.674;23.350;2023-06-14T01:44:42;94370.28;;;16.55;100.00
23164;BME280;31429;42.674;23.350;2023-06-14T01:45:45;94368.72;;;16.52;100.00
23164;BME280;31429;42.674;23.350;2023-06-14T01:46:47;94371.25;;;16.54;100.00
23164;BME280;31429;42.674;23.350;2023-06-14T01:47:48;94370.09;;;16.58;100.00
23164;BME280;31429;42.674;23.350;2023-06-14T01:48:49;94374.66;;;16.54;100.00
23164;BME280;31429;42.674;23.350;2023-06-14T01:49:50;94369.03;;;16.48;100.00
23164;BME280;31429;42.674;23.350;2023-06-14T01:50:52;94376.13;;;16.44;100.00
23164;BME280;31429;42.674;23.350;2023-06-14T01:51:53;94374.59;;;16.42;100.00
23164;BME280;31429;42.674;23.350;2023-06-14T01:52:53;94374.59;;;16.42;100.00
23164;BME280;31429;42.674;23.350;2023-06-14T01:53:55;94372.00;;;16.42;100.00
23164;BME280;31429;42.674;23.350;2023-06-14T01:54:57;94379.03;;;16.40;100.00
23164;BME280;31429;42.674;23.350;2023-06-14T01:55:58;94375.72;;;16.38;100.00
23164;BME280;31429;42.674;23.350;2023-06-14T01:56:59;94381.91;;;16.35;100.00
23164;BME280;31429;42.674;23.350;2023-06-14T01:58:00;94375.81;;;16.36;100.00
23164;BME280;31429;42.674;23.350;2023-06-14T01:59:00;94377.38;;;16.39;100.00
23164;BME280;31429;42.674;23.350;2023-06-14T02:00:01;94383.56;;;16.36;100.00
23164;BME280;31429;42.674;23.350;2023-06-14T02:01:03;94386.22;;;16.35;100.00
23164;BME280;31429;42.674;23.350;2023-06-14T02:02:05;94383.06;;;16.31;100.00
23164;BME280;31429;42.674;23.350;2023-06-14T02:03:06;94383.13;;;16.30;100.00
23164;BME280;31429;42.674;23.350;2023-06-14T02:04:07;94381.50;;;16.29;100.00
23164;BME280;31429;42.674;23.350;2023-06-14T02:05:07;94390.03;;;16.29;100.00
23164;BME280;31429;42.674;23.350;2023-06-14T02:06:09;94386.47;;;16.32;100.00
23164;BME280;31429;42.674;23.350;2023-06-14T02:07:10;94383.13;;;16.30;100.00
23164;BME280;31429;42.674;23.350;2023-06-14T02:08:11;94393.44;;;16.30;100.00
23164;BME280;31429;42.674;23.350;2023-06-14T02:09:13;94387.47;;;16.29;100.00
23164;BME280;31429;42.674;23.350;2023-06-14T02:10:14;94393.25;;;16.33;100.00
23164;BME280;31429;42.674;23.350;2023-06-14T02:11:15;94394.81;;;16.35;100.00
23164;BME280;31429;42.674;23.350;2023-06-14T02:12:17;94397.59;;;16.32;100.00
23164;BME280;31429;42.674;23.350;2023-06-14T02:13:17;94393.44;;;16.30;100.00
23164;BME280;31429;42.674;23.350;2023-06-14T02:14:18;94397.78;;;16.29;100.00
23164;BME280;31429;42.674;23.350;2023-06-14T02:15:19;94394.47;;;16.27;100.00
23164;BME280;31429;42.674;23.350;2023-06-14T02:16:20;94402.84;;;16.31;100.00
23164;BME280;31429;42.674;23.350;2023-06-14T02:17:20;94408.66;;;16.34;100.00
23164;BME280;31429;42.674;23.350;2023-06-14T02:18:21;94399.03;;;16.36;100.00
23164;BME280;31429;42.674;23.350;2023-06-14T02:19:22;94399.13;;;16.35;100.00
23164;BME280;31429;42.674;23.350;2023-06-14T02:20:22;94406.06;;;16.34;100.00
23164;BME280;31429;42.674;23.350;2023-06-14T02:21:23;94403.78;;;16.30;100.00
23164;BME280;31429;42.674;23.350;2023-06-14T02:22:23;94398.41;;;16.33;100.00
23164;BME280;31429;42.674;23.350;2023-06-14T02:23:24;94404.22;;;16.36;100.00
23164;BME280;31429;42.674;23.350;2023-06-14T02:24:27;94398.34;;;16.34;100.00
23164;BME280;31429;42.674;23.350;2023-06-14T02:25:27;94401.19;;;16.30;100.00
23164;BME280;31429;42.674;23.350;2023-06-14T02:26:28;94398.63;;;16.30;100.00
23164;BME280;31429;42.674;23.350;2023-06-14T02:27:29;94408.72;;;16.33;100.00
23164;BME280;31429;42.674;23.350;2023-06-14T02:28:30;94414.00;;;16.31;100.00
23164;BME280;31429;42.674;23.350;2023-06-14T02:29:30;94407.28;;;16.29;100.00
23164;BME280;31429;42.674;23.350;2023-06-14T02:30:31;94402.75;;;16.32;100.00
23164;BME280;31429;42.674;23.350;2023-06-14T02:31:32;94403.78;;;16.30;100.00
23164;BME280;31429;42.674;23.350;2023-06-14T02:32:33;94405.94;;;16.36;100.00
23164;BME280;31429;42.674;23.350;2023-06-14T02:33:36;94411.84;;;16.38;100.00
23164;BME280;31429;42.674;23.350;2023-06-14T02:34:37;94407.50;;;16.38;100.00
23164;BME280;31429;42.674;23.350;2023-06-14T02:35:41;94410.28;;;16.35;100.00
23164;BME280;31429;42.674;23.350;2023-06-14T02:36:41;94410.41;;;16.34;100.00
23164;BME280;31429;42.674;23.350;2023-06-14T02:37:45;94401.19;;;16.30;100.00
23164;BME280;31429;42.674;23.350;2023-06-14T02:38:46;94403.88;;;16.28;100.00
23164;BME280;31429;42.674;23.350;2023-06-14T02:39:48;94405.44;;;16.31;100.00
23164;BME280;31429;42.674;23.350;2023-06-14T02:40:49;94402.84;;;16.31;100.00
23164;BME280;31429;42.674;23.350;2023-06-14T02:41:49;94408.00;;;16.31;100.00
23164;BME280;31429;42.674;23.350;2023-06-14T02:42:50;94410.69;;;16.29;100.00
23164;BME280;31429;42.674;23.350;2023-06-14T02:43:51;94408.94;;;16.30;100.00
23164;BME280;31429;42.674;23.350;2023-06-14T02:44:52;94410.59;;;16.31;100.00
23164;BME280;31429;42.674;23.350;2023-06-14T02:45:52;94400.47;;;16.28;100.00
23164;BME280;31429;42.674;23.350;2023-06-14T02:46:53;94410.78;;;16.28;100.00
23164;BME280;31429;42.674;23.350;2023-06-14T02:47:54;94409.25;;;16.25;100.00
23164;BME280;31429;42.674;23.350;2023-06-14T02:48:56;94405.63;;;16.28;100.00
23164;BME280;31429;42.674;23.350;2023-06-14T02:49:57;94402.94;;;16.29;100.00
23164;BME280;31429;42.674;23.350;2023-06-14T02:50:57;94405.25;;;16.34;100.00
23164;BME280;31429;42.674;23.350;2023-06-14T02:51:58;94400.78;;;16.36;100.00
23164;BME280;31429;42.674;23.350;2023-06-14T02:52:59;94407.63;;;16.37;100.00
23164;BME280;31429;42.674;23.350;2023-06-14T02:53:59;94404.53;;;16.32;100.00
23164;BME280;31429;42.674;23.350;2023-06-14T02:55:01;94409.44;;;16.35;100.00
23164;BME280;31429;42.674;23.350;2023-06-14T02:56:02;94410.28;;;16.35;100.00
23164;BME280;31429;42.674;23.350;2023-06-14T02:57:04;94407.19;;;16.30;100.00
23164;BME280;31429;42.674;23.350;2023-06-14T02:58:07;94413.91;;;16.33;100.00
23164;BME280;31429;42.674;23.350;2023-06-14T02:59:08;94409.75;;;16.30;100.00
23164;BME280;31429;42.674;23.350;2023-06-14T03:00:10;94412.25;;;16.32;100.00
23164;BME280;31429;42.674;23.350;2023-06-14T03:01:13;94415.13;;;16.27;100.00
23164;BME280;31429;42.674;23.350;2023-06-14T03:02:14;94418.94;;;16.22;100.00
23164;BME280;31429;42.674;23.350;2023-06-14T03:03:15;94414.69;;;16.21;100.00
23164;BME280;31429;42.674;23.350;2023-06-14T03:04:16;94425.94;;;16.20;100.00
23164;BME280;31429;42.674;23.350;2023-06-14T03:05:17;94421.91;;;16.16;100.00
23164;BME280;31429;42.674;23.350;2023-06-14T03:06:21;94423.75;;;16.14;100.00
23164;BME280;31429;42.674;23.350;2023-06-14T03:07:25;94418.69;;;16.12;100.00
23164;BME280;31429;42.674;23.350;2023-06-14T03:08:27;94413.63;;;16.10;100.00
23164;BME280;31429;42.674;23.350;2023-06-14T03:09:29;94426.53;;;16.10;100.00
23164;BME280;31429;42.674;23.350;2023-06-14T03:10:31;94424.06;;;16.09;100.00
23164;BME280;31429;42.674;23.350;2023-06-14T03:11:32;94424.97;;;16.08;100.00
23164;BME280;31429;42.674;23.350;2023-06-14T03:12:33;94421.56;;;16.07;100.00
23164;BME280;31429;42.674;23.350;2023-06-14T03:13:34;94427.94;;;16.02;100.00
23164;BME280;31429;42.674;23.350;2023-06-14T03:14:35;94429.81;;;16.00;100.00
23164;BME280;31429;42.674;23.350;2023-06-14T03:15:36;94427.50;;;15.95;100.00
23164;BME280;31429;42.674;23.350;2023-06-14T03:16:37;94433.41;;;15.97;100.00
23164;BME280;31429;42.674;23.350;2023-06-14T03:17:37;94431.84;;;15.95;100.00
23164;BME280;31429;42.674;23.350;2023-06-14T03:18:39;94428.63;;;15.91;100.00
23164;BME280;31429;42.674;23.350;2023-06-14T03:19:39;94428.84;;;15.88;100.00
23164;BME280;31429;42.674;23.350;2023-06-14T03:20:41;94433.16;;;15.88;100.00
23164;BME280;31429;42.674;23.350;2023-06-14T03:21:43;94436.66;;;15.87;100.00
23164;BME280;31429;42.674;23.350;2023-06-14T03:22:44;94434.19;;;15.85;100.00
23164;BME280;31429;42.674;23.350;2023-06-14T03:23:46;94429.28;;;15.81;100.00
23164;BME280;31429;42.674;23.350;2023-06-14T03:24:47;94433.72;;;15.79;100.00
23164;BME280;31429;42.674;23.350;2023-06-14T03:25:49;94434.44;;;15.81;100.00
23164;BME280;31429;42.674;23.350;2023-06-14T03:26:50;94432.00;;;15.79;100.00
23164;BME280;31429;42.674;23.350;2023-06-14T03:27:51;94431.16;;;15.79;100.00
23164;BME280;31429;42.674;23.350;2023-06-14T03:28:52;94430.25;;;15.80;100.00
23164;BME280;31429;42.674;23.350;2023-06-14T03:29:52;94436.13;;;15.82;100.00
23164;BME280;31429;42.674;23.350;2023-06-14T03:30:53;94428.38;;;15.82;100.00
23164;BME280;31429;42.674;23.350;2023-06-14T03:31:57;94432.72;;;15.81;100.00
23164;BME280;31429;42.674;23.350;2023-06-14T03:32:58;94430.88;;;15.83;100.00
23164;BME280;31429;42.674;23.350;2023-06-14T03:34:01;94434.56;;;15.79;100.00
23164;BME280;31429;42.674;23.350;2023-06-14T03:35:02;94435.22;;;15.83;100.00
23164;BME280;31429;42.674;23.350;2023-06-14T03:36:03;94435.22;;;15.83;100.00
23164;BME280;31429;42.674;23.350;2023-06-14T03:37:04;94431.78;;;15.82;100.00
23164;BME280;31429;42.674;23.350;2023-06-14T03:38:05;94428.31;;;15.83;100.00
23164;BME280;31429;42.674;23.350;2023-06-14T03:39:06;94429.53;;;15.78;100.00
23164;BME280;31429;42.674;23.350;2023-06-14T03:40:07;94440.81;;;15.75;100.00
23164;BME280;31429;42.674;23.350;2023-06-14T03:41:09;94435.78;;;15.74;100.00
23164;BME280;31429;42.674;23.350;2023-06-14T03:42:09;94441.56;;;15.77;100.00
23164;BME280;31429;42.674;23.350;2023-06-14T03:43:10;94440.75;;;15.77;100.00
23164;BME280;31429;42.674;23.350;2023-06-14T03:44:11;94441.38;;;15.80;100.00
23164;BME280;31429;42.674;23.350;2023-06-14T03:45:12;94443.03;;;15.81;100.00
23164;BME280;31429;42.674;23.350;2023-06-14T03:46:12;94437.16;;;15.79;100.00
23164;BME280;31429;42.674;23.350;2023-06-14T03:47:13;94439.41;;;15.84;100.00
23164;BME280;31429;42.674;23.350;2023-06-14T03:48:14;94436.94;;;15.82;100.00
23164;BME280;31429;42.674;23.350;2023-06-14T03:49:15;94436.84;;;15.84;100.00
23164;BME280;31429;42.674;23.350;2023-06-14T03:50:17;94441.91;;;15.85;100.00
23164;BME280;31429;42.674;23.350;2023-06-14T03:51:18;94435.09;;;15.84;100.00
23164;BME280;31429;42.674;23.350;2023-06-14T03:52:19;94434.44;;;15.81;100.00
23164;BME280;31429;42.674;23.350;2023-06-14T03:53:19;94436.84;;;15.84;100.00
23164;BME280;31429;42.674;23.350;2023-06-14T03:54:23;94430.59;;;15.88;100.00
23164;BME280;31429;42.674;23.350;2023-06-14T03:55:24;94433.78;;;15.91;100.00
23164;BME280;31429;42.674;23.350;2023-06-14T03:56:29;94438.13;;;15.91;100.00
23164;BME280;31429;42.674;23.350;2023-06-14T03:57:30;94433.50;;;15.96;100.00
23164;BME280;31429;42.674;23.350;2023-06-14T03:58:31;94436.91;;;15.96;100.00
23164;BME280;31429;42.674;23.350;2023-06-14T03:59:32;94443.63;;;15.99;100.00
23164;BME280;31429;42.674;23.350;2023-06-14T04:00:33;94442.59;;;16.01;100.00
23164;BME280;31429;42.674;23.350;2023-06-14T04:01:33;94442.41;;;16.04;100.00
23164;BME280;31429;42.674;23.350;2023-06-14T04:02:34;94441.47;;;16.05;100.00
23164;BME280;31429;42.674;23.350;2023-06-14T04:03:35;94441.38;;;16.07;100.00
23164;BME280;31429;42.674;23.350;2023-06-14T04:04:36;94436.13;;;16.08;100.00
23164;BME280;31429;42.674;23.350;2023-06-14T04:05:36;94439.31;;;16.12;100.00
23164;BME280;31429;42.674;23.350;2023-06-14T04:06:37;94441.81;;;16.14;100.00
23164;BME280;31429;42.674;23.350;2023-06-14T04:07:38;94431.19;;;16.18;100.00
23164;BME280;31429;42.674;23.350;2023-06-14T04:08:40;94441.22;;;16.23;100.00
23164;BME280;31429;42.674;23.350;2023-06-14T04:09:41;94438.44;;;16.26;100.00
23164;BME280;31429;42.674;23.350;2023-06-14T04:10:42;94437.63;;;16.25;100.00
23164;BME280;31429;42.674;23.350;2023-06-14T04:11:44;94443.50;;;16.27;100.00
23164;BME280;31429;42.674;23.350;2023-06-14T04:12:45;94446.06;;;16.27;100.00
23164;BME280;31429;42.674;23.350;2023-06-14T04:13:45;94439.16;;;16.28;100.00
23164;BME280;31429;42.674;23.350;2023-06-14T04:14:47;94434.72;;;16.30;100.00
23164;BME280;31429;42.674;23.350;2023-06-14T04:15:48;94446.50;;;16.34;100.00
23164;BME280;31429;42.674;23.350;2023-06-14T04:16:49;94449.94;;;16.34;100.00
23164;BME280;31429;42.674;23.350;2023-06-14T04:17:50;94441.03;;;16.38;100.00
23164;BME280;31429;42.674;23.350;2023-06-14T04:18:51;94441.69;;;16.42;100.00
23164;BME280;31429;42.674;23.350;2023-06-14T04:19:52;94443.34;;;16.43;100.00
23164;BME280;31429;42.674;23.350;2023-06-14T04:20:53;94436.31;;;16.45;100.00
23164;BME280;31429;42.674;23.350;2023-06-14T04:21:54;94434.25;;;16.50;100.00
23164;BME280;31429;42.674;23.350;2023-06-14T04:22:56;94437.50;;;16.53;100.00
23164;BME280;31429;42.674;23.350;2023-06-14T04:23:57;94434.81;;;16.55;100.00
23164;BME280;31429;42.674;23.350;2023-06-14T04:24:58;94437.31;;;16.56;100.00
23164;BME280;31429;42.674;23.350;2023-06-14T04:25:59;94444.94;;;16.58;100.00
23164;BME280;31429;42.674;23.350;2023-06-14T04:27:04;94439.69;;;16.59;100.00
23164;BME280;31429;42.674;23.350;2023-06-14T04:28:05;94442.16;;;16.61;100.00
23164;BME280;31429;42.674;23.350;2023-06-14T04:29:05;94443.81;;;16.62;100.00
23164;BME280;31429;42.674;23.350;2023-06-14T04:30:07;94442.06;;;16.62;100.00
23164;BME280;31429;42.674;23.350;2023-06-14T04:31:08;94442.06;;;16.62;100.00
23164;BME280;31429;42.674;23.350;2023-06-14T04:32:09;94445.16;;;16.67;100.00
23164;BME280;31429;42.674;23.350;2023-06-14T04:33:10;94447.53;;;16.71;100.00
23164;BME280;31429;42.674;23.350;2023-06-14T04:34:11;94433.69;;;16.72;100.00
23164;BME280;31429;42.674;23.350;2023-06-14T04:35:16;94444.84;;;16.72;100.00
23164;BME280;31429;42.674;23.350;2023-06-14T04:36:17;94444.63;;;16.75;100.00
23164;BME280;31429;42.674;23.350;2023-06-14T04:37:18;94442.06;;;16.75;100.00
23164;BME280;31429;42.674;23.350;2023-06-14T04:38:19;94447.03;;;16.78;100.00
23164;BME280;31429;42.674;23.350;2023-06-14T04:39:25;94447.97;;;16.77;100.00
23164;BME280;31429;42.674;23.350;2023-06-14T04:40:26;94443.00;;;16.74;100.00
23164;BME280;31429;42.674;23.350;2023-06-14T04:41:27;94449.72;;;16.77;100.00
23164;BME280;31429;42.674;23.350;2023-06-14T04:42:32;94444.22;;;16.81;100.00
23164;BME280;31429;42.674;23.350;2023-06-14T04:43:33;94442.06;;;16.88;100.00
23164;BME280;31429;42.674;23.350;2023-06-14T04:44:38;94439.88;;;16.94;100.00
23164;BME280;31429;42.674;23.350;2023-06-14T04:45:40;94442.91;;;17.01;100.00
23164;BME280;31429;42.674;23.350;2023-06-14T04:46:41;94443.41;;;17.06;100.00
23164;BME280;31429;42.674;23.350;2023-06-14T04:47:46;94440.53;;;17.10;100.00
23164;BME280;31429;42.674;23.350;2023-06-14T04:48:47;94446.41;;;17.12;100.00
23164;BME280;31429;42.674;23.350;2023-06-14T04:49:48;94445.50;;;17.13;100.00
23164;BME280;31429;42.674;23.350;2023-06-14T04:50:48;94454.88;;;17.14;100.00
23164;BME280;31429;42.674;23.350;2023-06-14T04:51:53;94444.44;;;17.16;100.00
23164;BME280;31429;42.674;23.350;2023-06-14T04:52:57;94450.25;;;17.19;100.00
23164;BME280;31429;42.674;23.350;2023-06-14T04:54:00;94453.63;;;17.20;100.00
23164;BME280;31429;42.674;23.350;2023-06-14T04:55:01;94450.94;;;17.21;100.00
23164;BME280;31429;42.674;23.350;2023-06-14T04:56:02;94456.13;;;17.21;100.00
23164;BME280;31429;42.674;23.350;2023-06-14T04:57:04;94456.94;;;17.22;100.00
23164;BME280;31429;42.674;23.350;2023-06-14T04:58:07;94455.63;;;17.16;100.00
23164;BME280;31429;42.674;23.350;2023-06-14T04:59:08;94456.41;;;17.17;100.00
23164;BME280;31429;42.674;23.350;2023-06-14T05:00:10;94461.06;;;17.12;100.00
23164;BME280;31429;42.674;23.350;2023-06-14T05:01:11;94457.97;;;17.07;100.00
23164;BME280;31429;42.674;23.350;2023-06-14T05:02:13;94459.84;;;17.05;100.00
23164;BME280;31429;42.674;23.350;2023-06-14T05:03:14;94453.84;;;17.04;100.00
23164;BME280;31429;42.674;23.350;2023-06-14T05:04:15;94459.72;;;17.06;100.00
23164;BME280;31429;42.674;23.350;2023-06-14T05:05:15;94459.53;;;17.09;100.00
23164;BME280;31429;42.674;23.350;2023-06-14T05:06:17;94462.13;;;17.09;100.00
23164;BME280;31429;42.674;23.350;2023-06-14T05:07:18;94465.19;;;17.14;100.00
23164;BME280;31429;42.674;23.350;2023-06-14T05:08:19;94466.53;;;17.20;100.00
23164;BME280;31429;42.674;23.350;2023-06-14T05:09:20;94463.53;;;17.26;100.00
23164;BME280;31429;42.674;23.350;2023-06-14T05:10:21;94466.03;;;17.28;100.00
23164;BME280;31429;42.674;23.350;2023-06-14T05:11:22;94462.63;;;17.27;100.00
23164;BME280;31429;42.674;23.350;2023-06-14T05:12:24;94468.00;;;17.24;100.00
23164;BME280;31429;42.674;23.350;2023-06-14T05:13:26;94460.47;;;17.21;100.00
23164;BME280;31429;42.674;23.350;2023-06-14T05:14:28;94466.53;;;17.20;100.00
23164;BME280;31429;42.674;23.350;2023-06-14T05:15:28;94468.31;;;17.19;100.00
23164;BME280;31429;42.674;23.350;2023-06-14T05:16:29;94465.00;;;17.17;100.00
23164;BME280;31429;42.674;23.350;2023-06-14T05:17:30;94464.28;;;17.15;100.00